sensor_id;sensor_type;location;lat;lon;timestamp;temperature;humidity
24638;DHT22;12773;50.162;8.548;2023-03-21T00:02:03;12.00;99.90
24638;DHT22;12773;50.162;8.548;2023-03-21T00:04:51;12.00;99.90
24638;DHT22;12773;50.162;8.548;2023-03-21T00:07:39;12.00;99.90
24638;DHT22;12773;50.162;8.548;2023-03-21T00:10:26;12.10;99.90
24638;DHT22;12773;50.162;8.548;2023-03-21T00:13:17;12.20;99.90
24638;DHT22;12773;50.162;8.548;2023-03-21T00:16:09;12.20;99.90
24638;DHT22;12773;50.162;8.548;2023-03-21T00:19:00;12.20;99.90
24638;DHT22;12773;50.162;8.548;2023-03-21T00:21:49;12.20;99.90
24638;DHT22;12773;50.162;8.548;2023-03-21T00:24:39;12.20;99.90
24638;DHT22;12773;50.162;8.548;2023-03-21T00:27:26;12.30;99.90
24638;DHT22;12773;50.162;8.548;2023-03-21T00:30:15;12.30;99.90
24638;DHT22;12773;50.162;8.548;2023-03-21T00:33:03;12.20;99.90
24638;DHT22;12773;50.162;8.548;2023-03-21T00:35:52;12.10;99.90
24638;DHT22;12773;50.162;8.548;2023-03-21T00:38:46;11.90;99.90
24638;DHT22;12773;50.162;8.548;2023-03-21T00:41:31;11.90;99.90
24638;DHT22;12773;50.162;8.548;2023-03-21T00:44:19;11.90;99.90
24638;DHT22;12773;50.162;8.548;2023-03-21T00:47:10;11.80;99.90
24638;DHT22;12773;50.162;8.548;2023-03-21T00:49:57;11.80;99.90
24638;DHT22;12773;50.162;8.548;2023-03-21T00:52:45;11.80;99.90
24638;DHT22;12773;50.162;8.548;2023-03-21T00:55:33;11.80;99.90
24638;DHT22;12773;50.162;8.548;2023-03-21T00:58:21;11.80;99.90
24638;DHT22;12773;50.162;8.548;2023-03-21T01:01:08;11.80;99.90
24638;DHT22;12773;50.162;8.548;2023-03-21T01:03:55;11.80;99.90
24638;DHT22;12773;50.162;8.548;2023-03-21T01:06:44;11.80;99.90
24638;DHT22;12773;50.162;8.548;2023-03-21T01:09:31;11.80;99.90
24638;DHT22;12773;50.162;8.548;2023-03-21T01:12:18;11.80;99.90
24638;DHT22;12773;50.162;8.548;2023-03-21T01:15:06;11.80;99.90
24638;DHT22;12773;50.162;8.548;2023-03-21T01:17:54;11.80;99.90
24638;DHT22;12773;50.162;8.548;2023-03-21T01:20:42;11.80;99.90
24638;DHT22;12773;50.162;8.548;2023-03-21T01:23:32;11.80;99.90
24638;DHT22;12773;50.162;8.548;2023-03-21T01:26:19;11.70;99.90
24638;DHT22;12773;50.162;8.548;2023-03-21T01:29:07;11.80;99.90
24638;DHT22;12773;50.162;8.548;2023-03-21T01:31:55;11.80;99.90
24638;DHT22;12773;50.162;8.548;2023-03-21T01:34:42;11.70;99.90
24638;DHT22;12773;50.162;8.548;2023-03-21T01:37:29;11.60;99.90
24638;DHT22;12773;50.162;8.548;2023-03-21T01:40:21;11.50;99.90
24638;DHT22;12773;50.162;8.548;2023-03-21T01:43:20;11.40;99.90
24638;DHT22;12773;50.162;8.548;2023-03-21T01:46:27;11.40;99.90
24638;DHT22;12773;50.162;8.548;2023-03-21T01:52:04;11.20;99.90
24638;DHT22;12773;50.162;8.548;2023-03-21T01:54:54;11.20;99.90
24638;DHT22;12773;50.162;8.548;2023-03-21T01:57:50;11.20;99.90
24638;DHT22;12773;50.162;8.548;2023-03-21T02:00:47;11.10;99.90
24638;DHT22;12773;50.162;8.548;2023-03-21T02:03:38;11.10;99.90
24638;DHT22;12773;50.162;8.548;2023-03-21T02:06:48;11.20;99.90
24638;DHT22;12773;50.162;8.548;2023-03-21T02:09:37;11.10;99.90
24638;DHT22;12773;50.162;8.548;2023-03-21T02:12:26;11.10;99.90
24638;DHT22;12773;50.162;8.548;2023-03-21T02:15:14;11.10;99.90
24638;DHT22;12773;50.162;8.548;2023-03-21T02:18:13;11.10;99.90
24638;DHT22;12773;50.162;8.548;2023-03-21T02:21:33;11.00;99.90
24638;DHT22;12773;50.162;8.548;2023-03-21T02:27:16;11.00;99.90
24638;DHT22;12773;50.162;8.548;2023-03-21T02:30:29;11.00;99.90
24638;DHT22;12773;50.162;8.548;2023-03-21T02:33:34;11.00;99.90
24638;DHT22;12773;50.162;8.548;2023-03-21T02:36:42;10.90;99.90
24638;DHT22;12773;50.162;8.548;2023-03-21T02:39:39;10.90;99.90
24638;DHT22;12773;50.162;8.548;2023-03-21T02:45:29;10.90;99.90
24638;DHT22;12773;50.162;8.548;2023-03-21T02:48:19;10.90;99.90
24638;DHT22;12773;50.162;8.548;2023-03-21T02:51:10;11.00;99.90
24638;DHT22;12773;50.162;8.548;2023-03-21T02:54:12;10.90;99.90
24638;DHT22;12773;50.162;8.548;2023-03-21T02:56:58;10.90;99.90
24638;DHT22;12773;50.162;8.548;2023-03-21T02:59:48;10.80;99.90
24638;DHT22;12773;50.162;8.548;2023-03-21T03:02:38;10.70;99.90
24638;DHT22;12773;50.162;8.548;2023-03-21T03:05:29;10.60;99.90
24638;DHT22;12773;50.162;8.548;2023-03-21T03:08:34;10.50;99.90
24638;DHT22;12773;50.162;8.548;2023-03-21T03:11:27;10.40;99.90
24638;DHT22;12773;50.162;8.548;2023-03-21T03:14:39;10.20;99.90
24638;DHT22;12773;50.162;8.548;2023-03-21T03:23:44;9.60;99.90
24638;DHT22;12773;50.162;8.548;2023-03-21T03:26:33;9.50;99.90
24638;DHT22;12773;50.162;8.548;2023-03-21T03:29:23;9.50;99.90
24638;DHT22;12773;50.162;8.548;2023-03-21T03:32:17;9.50;99.90
24638;DHT22;12773;50.162;8.548;2023-03-21T03:35:05;9.60;99.90
24638;DHT22;12773;50.162;8.548;2023-03-21T03:37:55;9.60;99.90
24638;DHT22;12773;50.162;8.548;2023-03-21T03:40:47;9.60;99.90
24638;DHT22;12773;50.162;8.548;2023-03-21T03:43:48;9.60;99.90
24638;DHT22;12773;50.162;8.548;2023-03-21T03:46:49;9.50;99.90
24638;DHT22;12773;50.162;8.548;2023-03-21T03:49:52;9.40;99.90
24638;DHT22;12773;50.162;8.548;2023-03-21T03:52:37;9.50;99.90
24638;DHT22;12773;50.162;8.548;2023-03-21T03:55:27;9.40;99.90
24638;DHT22;12773;50.162;8.548;2023-03-21T03:58:18;9.40;99.90
24638;DHT22;12773;50.162;8.548;2023-03-21T04:01:07;9.40;99.90
24638;DHT22;12773;50.162;8.548;2023-03-21T04:03:56;9.40;99.90
24638;DHT22;12773;50.162;8.548;2023-03-21T04:06:45;9.50;99.90
24638;DHT22;12773;50.162;8.548;2023-03-21T04:09:34;9.60;99.90
24638;DHT22;12773;50.162;8.548;2023-03-21T04:12:23;9.80;99.90
24638;DHT22;12773;50.162;8.548;2023-03-21T04:15:11;9.80;99.90
24638;DHT22;12773;50.162;8.548;2023-03-21T04:17:59;9.80;99.90
24638;DHT22;12773;50.162;8.548;2023-03-21T04:20:46;9.80;99.90
24638;DHT22;12773;50.162;8.548;2023-03-21T04:23:34;9.70;99.90
24638;DHT22;12773;50.162;8.548;2023-03-21T04:26:22;9.60;99.90
24638;DHT22;12773;50.162;8.548;2023-03-21T04:29:10;9.60;99.90
24638;DHT22;12773;50.162;8.548;2023-03-21T04:31:57;9.70;99.90
24638;DHT22;12773;50.162;8.548;2023-03-21T04:34:45;9.80;99.90
24638;DHT22;12773;50.162;8.548;2023-03-21T04:37:39;9.90;99.90
24638;DHT22;12773;50.162;8.548;2023-03-21T04:40:26;10.00;99.90
24638;DHT22;12773;50.162;8.548;2023-03-21T04:43:14;10.10;99.90
24638;DHT22;12773;50.162;8.548;2023-03-21T04:46:02;10.00;99.90
24638;DHT22;12773;50.162;8.548;2023-03-21T04:48:49;9.90;99.90
24638;DHT22;12773;50.162;8.548;2023-03-21T04:51:38;9.80;99.90
24638;DHT22;12773;50.162;8.548;2023-03-21T04:54:26;9.70;99.90
24638;DHT22;12773;50.162;8.548;2023-03-21T04:57:13;9.70;99.90
24638;DHT22;12773;50.162;8.548;2023-03-21T05:00:01;9.90;99.90
24638;DHT22;12773;50.162;8.548;2023-03-21T05:02:50;10.00;99.90
24638;DHT22;12773;50.162;8.548;2023-03-21T05:05:39;10.10;99.90
24638;DHT22;12773;50.162;8.548;2023-03-21T05:08:27;10.10;99.90
24638;DHT22;12773;50.162;8.548;2023-03-21T05:11:15;10.10;99.90
24638;DHT22;12773;50.162;8.548;2023-03-21T05:14:07;10.10;99.90
24638;DHT22;12773;50.162;8.548;2023-03-21T05:16:54;10.10;99.90
24638;DHT22;12773;50.162;8.548;2023-03-21T05:19:43;10.10;99.90
24638;DHT22;12773;50.162;8.548;2023-03-21T05:22:30;10.10;99.90
24638;DHT22;12773;50.162;8.548;2023-03-21T05:25:19;10.10;99.90
24638;DHT22;12773;50.162;8.548;2023-03-21T05:28:08;10.00;99.90
24638;DHT22;12773;50.162;8.548;2023-03-21T05:30:55;10.10;99.90
24638;DHT22;12773;50.162;8.548;2023-03-21T05:33:43;10.10;99.90
24638;DHT22;12773;50.162;8.548;2023-03-21T05:36:31;10.10;99.90
24638;DHT22;12773;50.162;8.548;2023-03-21T05:39:20;10.10;99.90
24638;DHT22;12773;50.162;8.548;2023-03-21T05:42:07;10.10;99.90
24638;DHT22;12773;50.162;8.548;2023-03-21T05:44:54;10.10;99.90
24638;DHT22;12773;50.162;8.548;2023-03-21T05:47:41;10.10;99.90
24638;DHT22;12773;50.162;8.548;2023-03-21T05:50:29;10.10;99.90
24638;DHT22;12773;50.162;8.548;2023-03-21T05:53:16;10.00;99.90
24638;DHT22;12773;50.162;8.548;2023-03-21T05:56:04;9.90;99.90
24638;DHT22;12773;50.162;8.548;2023-03-21T05:58:51;9.80;99.90
24638;DHT22;12773;50.162;8.548;2023-03-21T06:01:39;9.80;99.90
24638;DHT22;12773;50.162;8.548;2023-03-21T06:04:26;9.90;99.90
24638;DHT22;12773;50.162;8.548;2023-03-21T06:07:13;9.90;99.90
24638;DHT22;12773;50.162;8.548;2023-03-21T06:10:02;10.00;99.90
24638;DHT22;12773;50.162;8.548;2023-03-21T06:12:49;9.90;99.90
24638;DHT22;12773;50.162;8.548;2023-03-21T06:15:36;9.80;99.90
24638;DHT22;12773;50.162;8.548;2023-03-21T06:18:26;9.90;99.90
24638;DHT22;12773;50.162;8.548;2023-03-21T06:21:14;9.90;99.90
24638;DHT22;12773;50.162;8.548;2023-03-21T06:24:02;10.00;99.90
24638;DHT22;12773;50.162;8.548;2023-03-21T06:26:49;10.00;99.90
24638;DHT22;12773;50.162;8.548;2023-03-21T06:29:36;10.10;99.90
24638;DHT22;12773;50.162;8.548;2023-03-21T06:32:24;10.40;99.90
24638;DHT22;12773;50.162;8.548;2023-03-21T06:35:11;10.50;99.90
24638;DHT22;12773;50.162;8.548;2023-03-21T06:37:59;10.70;99.90
24638;DHT22;12773;50.162;8.548;2023-03-21T06:40:47;10.80;99.90
24638;DHT22;12773;50.162;8.548;2023-03-21T06:43:35;10.90;99.90
24638;DHT22;12773;50.162;8.548;2023-03-21T06:46:22;11.10;99.90
24638;DHT22;12773;50.162;8.548;2023-03-21T06:49:09;11.30;99.90
24638;DHT22;12773;50.162;8.548;2023-03-21T06:51:56;11.50;99.90
24638;DHT22;12773;50.162;8.548;2023-03-21T06:54:43;11.70;99.90
24638;DHT22;12773;50.162;8.548;2023-03-21T06:57:31;11.80;99.90
24638;DHT22;12773;50.162;8.548;2023-03-21T07:00:19;11.90;99.90
24638;DHT22;12773;50.162;8.548;2023-03-21T07:03:06;12.00;99.90
24638;DHT22;12773;50.162;8.548;2023-03-21T07:05:53;12.10;99.90
24638;DHT22;12773;50.162;8.548;2023-03-21T07:08:41;12.00;99.90
24638;DHT22;12773;50.162;8.548;2023-03-21T07:11:28;12.10;99.90
24638;DHT22;12773;50.162;8.548;2023-03-21T07:14:17;12.10;99.90
24638;DHT22;12773;50.162;8.548;2023-03-21T07:17:04;12.20;99.90
24638;DHT22;12773;50.162;8.548;2023-03-21T07:19:52;12.60;99.90
24638;DHT22;12773;50.162;8.548;2023-03-21T07:22:39;12.80;99.90
24638;DHT22;12773;50.162;8.548;2023-03-21T07:25:26;13.00;99.90
24638;DHT22;12773;50.162;8.548;2023-03-21T07:28:15;13.30;99.90
24638;DHT22;12773;50.162;8.548;2023-03-21T07:31:04;13.20;99.90
24638;DHT22;12773;50.162;8.548;2023-03-21T07:33:52;13.20;99.90
24638;DHT22;12773;50.162;8.548;2023-03-21T07:36:39;13.20;99.90
24638;DHT22;12773;50.162;8.548;2023-03-21T07:39:27;13.20;99.90
24638;DHT22;12773;50.162;8.548;2023-03-21T07:42:21;13.20;99.90
24638;DHT22;12773;50.162;8.548;2023-03-21T07:45:09;13.20;99.90
24638;DHT22;12773;50.162;8.548;2023-03-21T07:47:58;13.10;99.90
24638;DHT22;12773;50.162;8.548;2023-03-21T07:50:48;13.30;99.90
24638;DHT22;12773;50.162;8.548;2023-03-21T07:53:36;13.30;99.90
24638;DHT22;12773;50.162;8.548;2023-03-21T07:56:23;13.50;99.90
24638;DHT22;12773;50.162;8.548;2023-03-21T07:59:10;13.40;99.90
24638;DHT22;12773;50.162;8.548;2023-03-21T08:01:58;13.40;99.90
24638;DHT22;12773;50.162;8.548;2023-03-21T08:04:45;13.50;99.90
24638;DHT22;12773;50.162;8.548;2023-03-21T08:07:32;13.70;99.90
24638;DHT22;12773;50.162;8.548;2023-03-21T08:10:19;13.50;99.90
24638;DHT22;12773;50.162;8.548;2023-03-21T08:13:07;13.50;99.90
24638;DHT22;12773;50.162;8.548;2023-03-21T08:15:55;13.20;99.90
24638;DHT22;12773;50.162;8.548;2023-03-21T08:18:43;13.20;99.90
24638;DHT22;12773;50.162;8.548;2023-03-21T08:21:30;13.30;99.90
24638;DHT22;12773;50.162;8.548;2023-03-21T08:24:18;13.50;99.90
24638;DHT22;12773;50.162;8.548;2023-03-21T08:27:05;13.50;99.90
24638;DHT22;12773;50.162;8.548;2023-03-21T08:29:52;13.50;99.90
24638;DHT22;12773;50.162;8.548;2023-03-21T08:32:40;13.60;99.90
24638;DHT22;12773;50.162;8.548;2023-03-21T08:35:28;13.50;99.90
24638;DHT22;12773;50.162;8.548;2023-03-21T08:38:16;13.50;99.90
24638;DHT22;12773;50.162;8.548;2023-03-21T08:41:03;13.30;99.90
24638;DHT22;12773;50.162;8.548;2023-03-21T08:43:51;13.40;99.90
24638;DHT22;12773;50.162;8.548;2023-03-21T08:46:38;13.40;99.90
24638;DHT22;12773;50.162;8.548;2023-03-21T08:49:26;13.60;99.90
24638;DHT22;12773;50.162;8.548;2023-03-21T08:52:14;13.80;99.90
24638;DHT22;12773;50.162;8.548;2023-03-21T08:55:01;13.90;99.90
24638;DHT22;12773;50.162;8.548;2023-03-21T08:57:48;13.70;99.90
24638;DHT22;12773;50.162;8.548;2023-03-21T09:00:36;13.50;99.90
24638;DHT22;12773;50.162;8.548;2023-03-21T09:03:24;13.90;99.90
24638;DHT22;12773;50.162;8.548;2023-03-21T09:06:12;13.90;99.90
24638;DHT22;12773;50.162;8.548;2023-03-21T09:09:00;14.10;99.90
24638;DHT22;12773;50.162;8.548;2023-03-21T09:11:49;14.00;99.90
24638;DHT22;12773;50.162;8.548;2023-03-21T09:14:37;14.00;99.90
24638;DHT22;12773;50.162;8.548;2023-03-21T09:17:25;14.20;99.90
24638;DHT22;12773;50.162;8.548;2023-03-21T09:20:13;13.90;99.90
24638;DHT22;12773;50.162;8.548;2023-03-21T09:23:09;13.90;99.90
24638;DHT22;12773;50.162;8.548;2023-03-21T09:25:56;13.90;99.90
24638;DHT22;12773;50.162;8.548;2023-03-21T09:28:43;14.10;99.90
24638;DHT22;12773;50.162;8.548;2023-03-21T09:31:33;14.10;99.90
24638;DHT22;12773;50.162;8.548;2023-03-21T09:34:20;14.00;99.90
24638;DHT22;12773;50.162;8.548;2023-03-21T09:37:07;13.90;99.90
24638;DHT22;12773;50.162;8.548;2023-03-21T09:39:56;14.00;99.90
24638;DHT22;12773;50.162;8.548;2023-03-21T09:42:53;14.20;99.90
24638;DHT22;12773;50.162;8.548;2023-03-21T09:45:43;14.20;99.90
24638;DHT22;12773;50.162;8.548;2023-03-21T09:48:39;14.10;99.90
24638;DHT22;12773;50.162;8.548;2023-03-21T09:51:31;14.30;99.90
24638;DHT22;12773;50.162;8.548;2023-03-21T09:54:30;14.50;99.90
24638;DHT22;12773;50.162;8.548;2023-03-21T10:00:12;14.10;99.90
24638;DHT22;12773;50.162;8.548;2023-03-21T10:03:04;14.20;99.90
24638;DHT22;12773;50.162;8.548;2023-03-21T10:05:55;14.40;99.90
24638;DHT22;12773;50.162;8.548;2023-03-21T10:08:45;14.70;99.90
24638;DHT22;12773;50.162;8.548;2023-03-21T10:11:48;14.80;99.90
24638;DHT22;12773;50.162;8.548;2023-03-21T10:14:41;14.80;99.90
24638;DHT22;12773;50.162;8.548;2023-03-21T10:17:37;14.90;99.90
24638;DHT22;12773;50.162;8.548;2023-03-21T10:20:29;14.90;99.90
24638;DHT22;12773;50.162;8.548;2023-03-21T10:23:20;15.00;99.90
24638;DHT22;12773;50.162;8.548;2023-03-21T10:26:07;14.80;99.90
24638;DHT22;12773;50.162;8.548;2023-03-21T10:28:57;14.50;99.90
24638;DHT22;12773;50.162;8.548;2023-03-21T10:31:46;14.30;99.90
24638;DHT22;12773;50.162;8.548;2023-03-21T10:34:41;14.20;99.90
24638;DHT22;12773;50.162;8.548;2023-03-21T10:37:30;14.00;99.90
24638;DHT22;12773;50.162;8.548;2023-03-21T10:40:18;13.90;99.90
24638;DHT22;12773;50.162;8.548;2023-03-21T10:43:28;13.80;99.90
24638;DHT22;12773;50.162;8.548;2023-03-21T10:46:18;13.70;99.90
24638;DHT22;12773;50.162;8.548;2023-03-21T10:49:14;13.50;99.90
24638;DHT22;12773;50.162;8.548;2023-03-21T10:52:01;13.30;99.90
24638;DHT22;12773;50.162;8.548;2023-03-21T10:54:48;13.30;99.90
24638;DHT22;12773;50.162;8.548;2023-03-21T10:57:36;13.20;99.90
24638;DHT22;12773;50.162;8.548;2023-03-21T11:00:27;13.20;99.90
24638;DHT22;12773;50.162;8.548;2023-03-21T11:03:27;13.20;99.90
24638;DHT22;12773;50.162;8.548;2023-03-21T11:09:21;13.40;99.90
24638;DHT22;12773;50.162;8.548;2023-03-21T11:12:13;13.40;99.90
24638;DHT22;12773;50.162;8.548;2023-03-21T11:15:33;13.30;99.90
24638;DHT22;12773;50.162;8.548;2023-03-21T11:18:23;13.30;99.90
24638;DHT22;12773;50.162;8.548;2023-03-21T11:21:12;13.30;99.90
24638;DHT22;12773;50.162;8.548;2023-03-21T11:23:59;13.20;99.90
24638;DHT22;12773;50.162;8.548;2023-03-21T11:26:49;13.00;99.90
24638;DHT22;12773;50.162;8.548;2023-03-21T11:29:38;13.00;99.90
24638;DHT22;12773;50.162;8.548;2023-03-21T11:32:35;12.90;99.90
24638;DHT22;12773;50.162;8.548;2023-03-21T11:35:27;13.10;99.90
24638;DHT22;12773;50.162;8.548;2023-03-21T11:38:29;13.20;99.90
24638;DHT22;12773;50.162;8.548;2023-03-21T11:41:29;13.10;99.90
24638;DHT22;12773;50.162;8.548;2023-03-21T11:44:34;13.00;99.90
24638;DHT22;12773;50.162;8.548;2023-03-21T11:47:21;13.00;99.90
24638;DHT22;12773;50.162;8.548;2023-03-21T11:53:31;12.90;99.90
24638;DHT22;12773;50.162;8.548;2023-03-21T11:56:31;12.90;99.90
24638;DHT22;12773;50.162;8.548;2023-03-21T11:59:47;12.90;99.90
24638;DHT22;12773;50.162;8.548;2023-03-21T12:03:05;12.80;99.90
24638;DHT22;12773;50.162;8.548;2023-03-21T12:05:57;12.60;99.90
24638;DHT22;12773;50.162;8.548;2023-03-21T12:08:53;12.70;99.90
24638;DHT22;12773;50.162;8.548;2023-03-21T12:12:02;12.80;99.90
24638;DHT22;12773;50.162;8.548;2023-03-21T12:17:52;13.20;99.90
24638;DHT22;12773;50.162;8.548;2023-03-21T12:20:57;13.40;99.90
24638;DHT22;12773;50.162;8.548;2023-03-21T12:24:06;13.50;99.90
24638;DHT22;12773;50.162;8.548;2023-03-21T12:27:09;13.60;99.90
24638;DHT22;12773;50.162;8.548;2023-03-21T12:36:32;13.60;99.90
24638;DHT22;12773;50.162;8.548;2023-03-21T12:39:28;13.50;99.90
24638;DHT22;12773;50.162;8.548;2023-03-21T12:45:12;13.70;99.90
24638;DHT22;12773;50.162;8.548;2023-03-21T12:50:53;13.90;99.90
24638;DHT22;12773;50.162;8.548;2023-03-21T12:53:50;13.90;99.90
24638;DHT22;12773;50.162;8.548;2023-03-21T12:56:42;13.80;99.90
24638;DHT22;12773;50.162;8.548;2023-03-21T12:59:45;13.60;99.90
24638;DHT22;12773;50.162;8.548;2023-03-21T13:02:44;13.40;99.90
24638;DHT22;12773;50.162;8.548;2023-03-21T13:05:29;13.30;99.90
24638;DHT22;12773;50.162;8.548;2023-03-21T13:08:21;13.20;99.90
24638;DHT22;12773;50.162;8.548;2023-03-21T13:11:11;13.30;99.90
24638;DHT22;12773;50.162;8.548;2023-03-21T13:14:06;13.30;99.90
24638;DHT22;12773;50.162;8.548;2023-03-21T13:16:57;13.20;99.90
24638;DHT22;12773;50.162;8.548;2023-03-21T13:19:55;13.30;99.90
24638;DHT22;12773;50.162;8.548;2023-03-21T13:22:42;13.60;99.90
24638;DHT22;12773;50.162;8.548;2023-03-21T13:25:30;13.80;99.90
24638;DHT22;12773;50.162;8.548;2023-03-21T13:28:26;13.70;99.90
24638;DHT22;12773;50.162;8.548;2023-03-21T13:31:17;13.50;99.90
24638;DHT22;12773;50.162;8.548;2023-03-21T13:34:06;13.40;99.90
24638;DHT22;12773;50.162;8.548;2023-03-21T13:36:56;13.20;99.90
24638;DHT22;12773;50.162;8.548;2023-03-21T13:39:45;13.10;99.90
24638;DHT22;12773;50.162;8.548;2023-03-21T13:42:33;13.10;99.90
24638;DHT22;12773;50.162;8.548;2023-03-21T13:45:30;13.10;99.90
24638;DHT22;12773;50.162;8.548;2023-03-21T13:48:29;13.00;99.90
24638;DHT22;12773;50.162;8.548;2023-03-21T13:51:21;13.00;99.90
24638;DHT22;12773;50.162;8.548;2023-03-21T13:54:16;13.00;99.90
24638;DHT22;12773;50.162;8.548;2023-03-21T13:57:13;13.10;99.90
24638;DHT22;12773;50.162;8.548;2023-03-21T14:00:18;13.10;99.90
24638;DHT22;12773;50.162;8.548;2023-03-21T14:03:08;13.10;99.90
24638;DHT22;12773;50.162;8.548;2023-03-21T14:05:57;12.90;99.90
24638;DHT22;12773;50.162;8.548;2023-03-21T14:08:46;13.10;99.90
24638;DHT22;12773;50.162;8.548;2023-03-21T14:11:35;13.10;99.90
24638;DHT22;12773;50.162;8.548;2023-03-21T14:14:28;13.10;99.90
24638;DHT22;12773;50.162;8.548;2023-03-21T14:17:23;13.30;99.90
24638;DHT22;12773;50.162;8.548;2023-03-21T14:20:14;13.30;99.90
24638;DHT22;12773;50.162;8.548;2023-03-21T14:23:04;13.10;99.90
24638;DHT22;12773;50.162;8.548;2023-03-21T14:25:51;13.00;99.90
24638;DHT22;12773;50.162;8.548;2023-03-21T14:28:44;12.90;99.90
24638;DHT22;12773;50.162;8.548;2023-03-21T14:31:29;12.90;99.90
24638;DHT22;12773;50.162;8.548;2023-03-21T14:34:19;13.00;99.90
24638;DHT22;12773;50.162;8.548;2023-03-21T14:37:09;13.00;99.90
24638;DHT22;12773;50.162;8.548;2023-03-21T14:39:59;13.10;99.90
24638;DHT22;12773;50.162;8.548;2023-03-21T14:42:49;13.30;99.90
24638;DHT22;12773;50.162;8.548;2023-03-21T14:45:36;13.40;99.90
24638;DHT22;12773;50.162;8.548;2023-03-21T14:48:33;13.40;99.90
24638;DHT22;12773;50.162;8.548;2023-03-21T14:51:21;13.30;99.90
24638;DHT22;12773;50.162;8.548;2023-03-21T14:54:12;13.30;99.90
24638;DHT22;12773;50.162;8.548;2023-03-21T14:57:06;13.40;99.90
24638;DHT22;12773;50.162;8.548;2023-03-21T14:59:54;13.40;99.90
24638;DHT22;12773;50.162;8.548;2023-03-21T15:02:43;13.30;99.90
24638;DHT22;12773;50.162;8.548;2023-03-21T15:05:33;13.30;99.90
24638;DHT22;12773;50.162;8.548;2023-03-21T15:08:25;13.30;99.90
24638;DHT22;12773;50.162;8.548;2023-03-21T15:11:13;13.30;99.90
24638;DHT22;12773;50.162;8.548;2023-03-21T15:14:10;13.30;99.90
24638;DHT22;12773;50.162;8.548;2023-03-21T15:16:59;13.30;99.90
24638;DHT22;12773;50.162;8.548;2023-03-21T15:19:49;13.20;99.90
24638;DHT22;12773;50.162;8.548;2023-03-21T15:22:39;13.20;99.90
24638;DHT22;12773;50.162;8.548;2023-03-21T15:25:29;13.20;99.90
24638;DHT22;12773;50.162;8.548;2023-03-21T15:28:17;13.30;99.90
24638;DHT22;12773;50.162;8.548;2023-03-21T15:31:12;13.40;99.90
24638;DHT22;12773;50.162;8.548;2023-03-21T15:33:55;13.50;99.90
24638;DHT22;12773;50.162;8.548;2023-03-21T15:36:45;13.80;99.90
24638;DHT22;12773;50.162;8.548;2023-03-21T15:39:33;13.90;99.90
24638;DHT22;12773;50.162;8.548;2023-03-21T15:42:31;13.90;99.90
24638;DHT22;12773;50.162;8.548;2023-03-21T15:45:23;14.00;99.90
24638;DHT22;12773;50.162;8.548;2023-03-21T15:48:13;14.10;99.90
24638;DHT22;12773;50.162;8.548;2023-03-21T15:51:19;14.20;99.90
24638;DHT22;12773;50.162;8.548;2023-03-21T15:54:16;14.20;99.90
24638;DHT22;12773;50.162;8.548;2023-03-21T15:57:05;14.20;99.90
24638;DHT22;12773;50.162;8.548;2023-03-21T16:00:30;14.20;99.90
24638;DHT22;12773;50.162;8.548;2023-03-21T16:03:26;14.00;99.90
24638;DHT22;12773;50.162;8.548;2023-03-21T16:06:19;13.90;99.90
24638;DHT22;12773;50.162;8.548;2023-03-21T16:09:13;13.90;99.90
24638;DHT22;12773;50.162;8.548;2023-03-21T16:12:07;13.90;99.90
24638;DHT22;12773;50.162;8.548;2023-03-21T16:14:52;14.00;99.90
24638;DHT22;12773;50.162;8.548;2023-03-21T16:17:45;14.10;99.90
24638;DHT22;12773;50.162;8.548;2023-03-21T16:20:38;14.10;99.90
24638;DHT22;12773;50.162;8.548;2023-03-21T16:23:26;14.00;99.90
24638;DHT22;12773;50.162;8.548;2023-03-21T16:26:16;13.90;99.90
24638;DHT22;12773;50.162;8.548;2023-03-21T16:29:04;13.80;99.90
24638;DHT22;12773;50.162;8.548;2023-03-21T16:31:53;13.80;99.90
24638;DHT22;12773;50.162;8.548;2023-03-21T16:34:41;13.80;99.90
24638;DHT22;12773;50.162;8.548;2023-03-21T16:37:28;13.70;99.90
24638;DHT22;12773;50.162;8.548;2023-03-21T16:40:23;13.60;99.90
24638;DHT22;12773;50.162;8.548;2023-03-21T16:43:06;13.70;99.90
24638;DHT22;12773;50.162;8.548;2023-03-21T16:45:53;13.70;99.90
24638;DHT22;12773;50.162;8.548;2023-03-21T16:48:43;13.60;99.90
24638;DHT22;12773;50.162;8.548;2023-03-21T16:51:33;13.60;99.90
24638;DHT22;12773;50.162;8.548;2023-03-21T16:54:21;13.60;99.90
24638;DHT22;12773;50.162;8.548;2023-03-21T16:57:29;13.60;99.90
24638;DHT22;12773;50.162;8.548;2023-03-21T17:00:03;13.60;99.90
24638;DHT22;12773;50.162;8.548;2023-03-21T17:02:53;13.60;99.90
24638;DHT22;12773;50.162;8.548;2023-03-21T17:05:42;13.60;99.90
24638;DHT22;12773;50.162;8.548;2023-03-21T17:08:29;13.60;99.90
24638;DHT22;12773;50.162;8.548;2023-03-21T17:11:19;13.60;99.90
24638;DHT22;12773;50.162;8.548;2023-03-21T17:14:08;13.50;99.90
24638;DHT22;12773;50.162;8.548;2023-03-21T17:16:56;13.60;99.90
24638;DHT22;12773;50.162;8.548;2023-03-21T17:19:45;13.50;99.90
24638;DHT22;12773;50.162;8.548;2023-03-21T17:22:32;13.50;99.90
24638;DHT22;12773;50.162;8.548;2023-03-21T17:25:19;13.40;99.90
24638;DHT22;12773;50.162;8.548;2023-03-21T17:28:07;13.40;99.90
24638;DHT22;12773;50.162;8.548;2023-03-21T17:30:54;13.40;99.90
24638;DHT22;12773;50.162;8.548;2023-03-21T17:33:42;13.40;99.90
24638;DHT22;12773;50.162;8.548;2023-03-21T17:36:36;13.40;99.90
24638;DHT22;12773;50.162;8.548;2023-03-21T17:39:25;13.30;99.90
24638;DHT22;12773;50.162;8.548;2023-03-21T17:42:15;13.30;99.90
24638;DHT22;12773;50.162;8.548;2023-03-21T17:45:03;13.30;99.90
24638;DHT22;12773;50.162;8.548;2023-03-21T17:47:51;13.30;99.90
24638;DHT22;12773;50.162;8.548;2023-03-21T17:50:40;13.00;99.90
24638;DHT22;12773;50.162;8.548;2023-03-21T17:53:27;12.90;99.90
24638;DHT22;12773;50.162;8.548;2023-03-21T17:56:19;12.70;99.90
24638;DHT22;12773;50.162;8.548;2023-03-21T17:59:07;12.50;99.90
24638;DHT22;12773;50.162;8.548;2023-03-21T18:01:55;12.30;99.90
24638;DHT22;12773;50.162;8.548;2023-03-21T18:04:43;12.30;99.90
24638;DHT22;12773;50.162;8.548;2023-03-21T18:07:30;12.20;99.90
24638;DHT22;12773;50.162;8.548;2023-03-21T18:10:23;12.00;99.90
24638;DHT22;12773;50.162;8.548;2023-03-21T18:13:12;11.80;99.90
24638;DHT22;12773;50.162;8.548;2023-03-21T18:15:59;11.60;99.90
24638;DHT22;12773;50.162;8.548;2023-03-21T18:18:47;11.40;99.90
24638;DHT22;12773;50.162;8.548;2023-03-21T18:21:36;11.40;99.90
24638;DHT22;12773;50.162;8.548;2023-03-21T18:24:25;11.50;99.90
24638;DHT22;12773;50.162;8.548;2023-03-21T18:27:13;11.60;99.90
24638;DHT22;12773;50.162;8.548;2023-03-21T18:30:05;11.50;99.90
24638;DHT22;12773;50.162;8.548;2023-03-21T18:32:55;11.50;99.90
24638;DHT22;12773;50.162;8.548;2023-03-21T18:35:42;11.40;99.90
24638;DHT22;12773;50.162;8.548;2023-03-21T18:38:30;11.30;99.90
24638;DHT22;12773;50.162;8.548;2023-03-21T18:41:21;11.10;99.90